Yakima Air Terminal McAllister Field
KYKM : now visible

Airfield :











YOU CAN JOIN US ON...

 
LOGIN :

Register | Disclaimer

   EN    FR    IT 

 









Legend :    VFR   Marginal VFR   IFR   Intensive IFR   Very Intensive IFR
Visi :
Ceiling :
>= 8 km
>= 3000ft
5 to 8 km
1000 to 3000 ft
1500m to 5 km
500 to 1000 ft
800 to 1500m
200 to 500 ft
< 800m
< 200 ft
Symbols :   Thunderstorms  Fog  Heavy snow  Heavy precipitations  Wind > 20 kt






- Airport Elevation : 1099 ft
- IATA code : YKM


KYKM - Yakima Air Terminal McAllister Field

CURRENT METAR :
  • 180953Z AUTO 27007KT 10SM CLR 21/11 A2994 RMK AO2 SLP129 T02060111

EXPIRED METARs :
  • 180853Z AUTO 26009KT 10SM CLR 21/12 A2993 RMK AO2 SLP126 T02060117 51004
  • 180753Z AUTO 27004KT 10SM CLR 23/12 A2993 RMK AO2 SLP126 T02280122 403830150

TAF KYKM
Valid from the 18 at 06:00 until the 19 at 06:00 UTC


180520Z 1806/1906 28007KT P6SM SCT250
FM182000 28007KT P6SM FEW100 BKN250
FM190400 25007KT P6SM FEW100 BKN250
KZSE FIR / North America



MET'MAP, your aeronautical weather chart ! - Copyright ORBIFLY December 2007 - Disclaimer

ORBIFLY MET'MAP TEAM :

Programming & Development : Alexandra Zaïnal
Original concept : Baudouin d'Aumeries
Technical & hardware support : Manuel Goepfert
Assistance : Marc-Olivier Méhu




SOURCES & CREDITS :

   NOAA       Earth
Advisory